createdAt,value
2023-05-20T00:02:20.095Z,10.50
2023-05-20T00:06:37.912Z,10.50
2023-05-20T00:10:56.547Z,10.47
2023-05-20T00:15:14.759Z,10.44
2023-05-20T00:19:32.249Z,10.44
2023-05-20T00:23:50.887Z,10.43
2023-05-20T00:28:08.872Z,10.41
2023-05-20T00:32:27.220Z,10.41
2023-05-20T00:36:45.001Z,10.40
2023-05-20T00:41:03.345Z,10.41
2023-05-20T00:45:21.021Z,10.40
2023-05-20T00:49:38.715Z,10.44
2023-05-20T00:53:57.129Z,10.48
2023-05-20T00:58:14.897Z,10.48
2023-05-20T01:02:33.227Z,10.53
2023-05-20T01:06:51.037Z,10.56
2023-05-20T01:11:17.307Z,10.60
2023-05-20T01:15:36.199Z,10.61
2023-05-20T01:19:56.467Z,10.60
2023-05-20T01:24:14.813Z,10.63
2023-05-20T01:28:39.533Z,10.67
2023-05-20T01:33:11.941Z,10.68
2023-05-20T01:37:31.616Z,10.65
2023-05-20T01:41:51.652Z,10.68
2023-05-20T01:46:09.385Z,10.70
2023-05-20T01:50:27.479Z,10.70
2023-05-20T01:54:51.630Z,10.74
2023-05-20T01:59:09.623Z,10.75
2023-05-20T02:03:29.864Z,10.77
2023-05-20T02:07:47.440Z,10.80
2023-05-20T02:12:05.699Z,10.80
2023-05-20T02:16:24.145Z,10.80
2023-05-20T02:20:42.876Z,10.83
2023-05-20T02:25:01.200Z,10.85
2023-05-20T02:29:22.754Z,10.85
2023-05-20T02:33:40.410Z,10.91
2023-05-20T02:37:58.748Z,10.89
2023-05-20T02:42:16.776Z,10.94
2023-05-20T02:46:34.598Z,10.94
2023-05-20T02:50:54.576Z,10.96
2023-05-20T02:55:12.556Z,10.99
2023-05-20T02:59:30.754Z,11.01
2023-05-20T03:03:48.602Z,11.05
2023-05-20T03:08:12.707Z,11.06
2023-05-20T03:12:31.402Z,11.05
2023-05-20T03:16:50.684Z,11.11
2023-05-20T03:21:10.009Z,11.12
2023-05-20T03:25:27.920Z,11.16
2023-05-20T03:29:48.464Z,11.20
2023-05-20T03:34:07.168Z,11.26
2023-05-20T03:38:25.767Z,11.33
2023-05-20T03:42:43.450Z,11.33
2023-05-20T03:47:01.314Z,11.40
2023-05-20T03:51:19.599Z,11.47
2023-05-20T03:55:37.136Z,11.56
2023-05-20T03:59:55.178Z,11.63
2023-05-20T04:04:12.838Z,11.73
2023-05-20T04:08:31.216Z,11.78
2023-05-20T04:12:50.264Z,11.85
2023-05-20T04:17:08.680Z,12.04
2023-05-20T04:21:26.353Z,12.12
2023-05-20T04:25:44.936Z,12.25
2023-05-20T04:30:02.788Z,12.43
2023-05-20T04:34:27.035Z,12.53
2023-05-20T04:38:45.499Z,12.46
2023-05-20T04:43:04.189Z,12.44
2023-05-20T04:47:22.402Z,12.43
2023-05-20T04:51:40.045Z,12.52
2023-05-20T04:55:58.038Z,12.56
2023-05-20T05:00:16.254Z,12.43
2023-05-20T05:04:34.749Z,12.47
2023-05-20T05:08:53.002Z,12.57
2023-05-20T05:13:10.406Z,12.68
2023-05-20T05:17:29.661Z,12.77
2023-05-20T05:21:49.948Z,12.97
2023-05-20T05:26:07.936Z,13.28
2023-05-20T05:30:26.566Z,13.44
2023-05-20T05:34:46.225Z,13.77
2023-05-20T05:39:05.614Z,13.97
2023-05-20T05:43:23.125Z,14.05
2023-05-20T05:47:41.672Z,14.28
2023-05-20T05:51:59.331Z,14.29
2023-05-20T05:56:18.192Z,14.22
2023-05-20T06:00:36.152Z,14.21
2023-05-20T06:04:54.161Z,14.40
2023-05-20T06:09:12.721Z,14.80
2023-05-20T06:13:30.874Z,14.69
2023-05-20T06:17:48.509Z,14.70
2023-05-20T06:22:06.554Z,15.12
2023-05-20T06:26:24.257Z,15.36
2023-05-20T06:30:42.534Z,15.40
2023-05-20T06:35:01.003Z,15.71
2023-05-20T06:39:20.806Z,15.81
2023-05-20T06:43:38.416Z,16.05
2023-05-20T06:47:56.668Z,16.28
2023-05-20T06:52:14.400Z,16.71
2023-05-20T06:56:32.597Z,16.88
2023-05-20T07:00:50.620Z,16.61
2023-05-20T07:05:08.930Z,16.77
2023-05-20T07:09:27.447Z,16.98
2023-05-20T07:13:45.036Z,16.84
2023-05-20T07:18:03.698Z,16.64
2023-05-20T07:22:21.322Z,17.12
2023-05-20T07:26:39.818Z,17.00
2023-05-20T07:30:59.100Z,17.22
2023-05-20T07:35:17.038Z,17.53
2023-05-20T07:39:35.344Z,17.38
2023-05-20T07:43:58.445Z,17.69
2023-05-20T07:48:16.079Z,17.76
2023-05-20T07:52:43.944Z,17.52
2023-05-20T07:57:12.542Z,17.12
2023-05-20T08:01:30.435Z,17.59
2023-05-20T08:05:48.145Z,17.35
2023-05-20T08:10:07.785Z,16.77
2023-05-20T08:14:26.073Z,16.76
2023-05-20T08:18:43.638Z,17.03
2023-05-20T08:23:02.284Z,17.10
2023-05-20T08:27:19.835Z,17.40
2023-05-20T08:31:38.613Z,17.72
2023-05-20T08:35:56.649Z,17.65
2023-05-20T08:40:15.366Z,17.47
2023-05-20T08:44:34.566Z,17.69
2023-05-20T08:48:52.362Z,17.53
2023-05-20T08:53:11.787Z,17.83
2023-05-20T08:57:30.277Z,17.73
2023-05-20T09:01:47.899Z,17.94
2023-05-20T09:06:07.692Z,18.88
2023-05-20T09:10:27.450Z,18.83
2023-05-20T09:14:45.275Z,18.35
2023-05-20T09:19:06.970Z,18.72
2023-05-20T09:23:29.976Z,18.97
2023-05-20T09:27:48.164Z,19.15
2023-05-20T09:32:06.024Z,19.27
2023-05-20T09:36:33.146Z,18.87
2023-05-20T09:40:51.236Z,19.74
2023-05-20T09:45:12.064Z,19.49
2023-05-20T09:49:32.498Z,19.24
2023-05-20T09:53:52.041Z,19.34
2023-05-20T09:58:16.130Z,20.58
2023-05-20T10:02:37.120Z,20.18
2023-05-20T10:07:38.014Z,19.70
2023-05-20T10:12:15.355Z,20.18
2023-05-20T10:16:59.086Z,19.17
2023-05-20T10:21:20.175Z,19.80
2023-05-20T10:25:37.752Z,19.65
2023-05-20T10:29:59.050Z,19.82
2023-05-20T10:34:20.608Z,19.77
2023-05-20T10:38:53.518Z,20.76
2023-05-20T10:43:14.038Z,20.20
2023-05-20T10:47:32.591Z,20.60
2023-05-20T10:51:53.212Z,20.96
2023-05-20T10:56:27.280Z,20.79
2023-05-20T11:00:46.022Z,19.73
2023-05-20T11:05:04.992Z,20.01
2023-05-20T11:09:23.582Z,20.71
2023-05-20T11:13:41.734Z,20.22
2023-05-20T11:18:03.170Z,21.06
2023-05-20T11:22:22.415Z,21.55
2023-05-20T11:26:42.886Z,23.12
2023-05-20T11:31:01.385Z,24.87
2023-05-20T11:35:26.846Z,24.10
2023-05-20T11:39:45.192Z,24.59
2023-05-20T11:44:04.195Z,24.60
2023-05-20T11:48:21.971Z,24.72
2023-05-20T11:52:40.018Z,28.06
2023-05-20T11:56:57.549Z,27.43
2023-05-20T12:01:22.387Z,28.58
2023-05-20T12:05:41.089Z,30.93
2023-05-20T12:10:00.231Z,26.83
2023-05-20T12:14:18.573Z,24.39
2023-05-20T12:18:37.538Z,32.10
2023-05-20T12:22:55.124Z,32.43
2023-05-20T12:27:13.213Z,35.92
2023-05-20T12:31:34.686Z,37.85
2023-05-20T12:35:52.846Z,39.64
2023-05-20T12:40:12.967Z,41.69
2023-05-20T12:44:32.125Z,40.13
2023-05-20T12:48:49.822Z,40.57
2023-05-20T12:53:09.458Z,39.55
2023-05-20T12:57:27.327Z,41.61
2023-05-20T13:01:45.103Z,37.92
2023-05-20T13:06:03.224Z,38.94
2023-05-20T13:10:20.922Z,38.36
2023-05-20T13:14:39.319Z,40.85
2023-05-20T13:18:57.744Z,40.33
2023-05-20T13:23:15.479Z,40.94
2023-05-20T13:27:33.115Z,40.94
2023-05-20T13:31:50.038Z,40.79
2023-05-20T13:36:08.428Z,42.39
2023-05-20T13:40:26.019Z,38.44
2023-05-20T13:44:43.966Z,41.00
2023-05-20T13:49:03.298Z,40.34
2023-05-20T13:53:20.819Z,42.09
2023-05-20T13:57:39.877Z,45.01
2023-05-20T14:01:57.497Z,42.93
2023-05-20T14:06:19.072Z,42.59
2023-05-20T14:10:36.880Z,42.53
2023-05-20T14:14:55.308Z,40.81
2023-05-20T14:19:12.914Z,44.54
2023-05-20T14:23:31.856Z,44.71
2023-05-20T14:27:50.681Z,42.39
2023-05-20T14:32:09.385Z,43.29
2023-05-20T14:36:28.026Z,43.31
2023-05-20T14:40:46.049Z,43.18
2023-05-20T14:45:05.931Z,43.85
2023-05-20T14:49:24.326Z,42.71
2023-05-20T14:53:42.410Z,42.49
2023-05-20T14:58:00.941Z,42.56
2023-05-20T15:02:19.903Z,42.12
2023-05-20T15:06:38.617Z,42.94
2023-05-20T15:10:56.787Z,45.32
2023-05-20T15:15:15.481Z,45.23
2023-05-20T15:19:33.282Z,41.00
2023-05-20T15:23:51.516Z,41.09
2023-05-20T15:28:09.932Z,43.58
2023-05-20T15:32:27.712Z,41.77
2023-05-20T15:36:45.763Z,40.21
2023-05-20T15:41:04.970Z,41.03
2023-05-20T15:45:22.995Z,42.45
2023-05-20T15:49:41.272Z,41.54
2023-05-20T15:53:58.938Z,40.57
2023-05-20T15:58:16.974Z,39.55
2023-05-20T16:02:36.530Z,40.79
2023-05-20T16:06:55.152Z,39.54
2023-05-20T16:11:12.762Z,39.06
2023-05-20T16:15:37.038Z,37.01
2023-05-20T16:19:55.208Z,36.75
2023-05-20T16:24:12.863Z,36.77
2023-05-20T16:28:31.765Z,36.24
2023-05-20T16:32:50.594Z,34.25
2023-05-20T16:37:08.248Z,32.57
2023-05-20T16:41:26.926Z,32.81
2023-05-20T16:45:45.016Z,33.84
2023-05-20T16:50:05.084Z,32.88
2023-05-20T16:54:22.653Z,30.83
2023-05-20T16:58:40.835Z,30.51
2023-05-20T17:02:58.558Z,30.67
2023-05-20T17:07:16.717Z,29.63
2023-05-20T17:11:35.628Z,29.44
2023-05-20T17:15:53.373Z,28.21
2023-05-20T17:20:12.133Z,27.87
2023-05-20T17:24:35.051Z,25.47
2023-05-20T17:28:53.700Z,23.69
2023-05-20T17:33:13.632Z,21.48
2023-05-20T17:37:31.659Z,20.41
2023-05-20T17:41:50.261Z,19.70
2023-05-20T17:46:08.267Z,19.36
2023-05-20T17:50:26.079Z,18.90
2023-05-20T17:54:45.080Z,18.49
2023-05-20T17:59:03.199Z,18.42
2023-05-20T18:03:24.287Z,18.36
2023-05-20T18:07:41.922Z,18.08
2023-05-20T18:11:59.776Z,17.86
2023-05-20T18:16:17.557Z,17.53
2023-05-20T18:20:35.276Z,17.19
2023-05-20T18:24:53.693Z,16.80
2023-05-20T18:29:12.550Z,16.63
2023-05-20T18:33:31.686Z,16.35
2023-05-20T18:37:50.038Z,16.11
2023-05-20T18:42:07.538Z,15.93
2023-05-20T18:46:27.440Z,15.63
2023-05-20T18:50:44.977Z,15.25
2023-05-20T18:55:02.653Z,14.95
2023-05-20T18:59:21.912Z,14.91
2023-05-20T19:03:44.313Z,14.97
2023-05-20T19:08:06.221Z,14.97
2023-05-20T19:12:24.908Z,14.85
2023-05-20T19:16:44.148Z,14.69
2023-05-20T19:21:03.037Z,14.64
2023-05-20T19:25:21.794Z,14.56
2023-05-20T19:29:39.594Z,14.62
2023-05-20T19:33:57.224Z,14.53
2023-05-20T19:38:14.888Z,14.48
2023-05-20T19:42:33.571Z,14.39
2023-05-20T19:46:53.191Z,14.33
2023-05-20T19:51:11.186Z,14.36
2023-05-20T19:55:28.715Z,14.25
2023-05-20T19:59:51.686Z,14.28
2023-05-20T20:04:11.212Z,14.15
2023-05-20T20:08:30.724Z,14.05
2023-05-20T20:12:48.938Z,13.93
2023-05-20T20:17:07.016Z,13.97
2023-05-20T20:21:26.832Z,13.98
2023-05-20T20:25:48.201Z,13.78
2023-05-20T20:30:09.020Z,13.80
2023-05-20T20:34:26.676Z,13.78
2023-05-20T20:38:47.392Z,13.68
2023-05-20T20:43:20.906Z,13.61
2023-05-20T20:47:41.328Z,13.61
2023-05-20T20:52:01.775Z,13.51
2023-05-20T20:56:19.999Z,13.47
2023-05-20T21:00:40.885Z,13.44
2023-05-20T21:04:59.457Z,13.47
2023-05-20T21:09:18.116Z,13.51
2023-05-20T21:13:36.769Z,13.50
2023-05-20T21:17:55.763Z,13.40
2023-05-20T21:22:13.289Z,13.29
2023-05-20T21:26:30.892Z,13.21
2023-05-20T21:30:53.610Z,13.19
2023-05-20T21:35:12.094Z,13.16
2023-05-20T21:39:34.230Z,13.07
2023-05-20T21:43:52.827Z,13.09
2023-05-20T21:48:11.391Z,13.00
2023-05-20T21:52:30.269Z,13.00
2023-05-20T21:56:48.420Z,13.05
2023-05-20T22:01:06.256Z,13.14
2023-05-20T22:05:24.759Z,13.01
2023-05-20T22:09:42.370Z,12.80
2023-05-20T22:14:00.449Z,12.61
2023-05-20T22:18:19.128Z,12.68
2023-05-20T22:22:40.474Z,12.65
2023-05-20T22:26:58.494Z,12.65
2023-05-20T22:31:16.043Z,12.57
2023-05-20T22:35:33.968Z,12.32
2023-05-20T22:39:51.603Z,12.35
2023-05-20T22:44:10.239Z,12.46
2023-05-20T22:48:28.781Z,12.52
2023-05-20T22:52:46.442Z,12.37
2023-05-20T22:57:05.682Z,12.29
2023-05-20T23:01:24.437Z,12.30
2023-05-20T23:05:42.786Z,12.28
2023-05-20T23:10:00.370Z,12.42
2023-05-20T23:14:21.185Z,12.40
2023-05-20T23:18:38.756Z,12.36
2023-05-20T23:22:57.455Z,12.52
2023-05-20T23:27:15.940Z,12.61
2023-05-20T23:31:35.030Z,12.85
2023-05-20T23:35:53.078Z,13.04
2023-05-20T23:40:10.640Z,13.23
2023-05-20T23:44:28.716Z,13.33
2023-05-20T23:48:50.574Z,13.43
2023-05-20T23:53:08.498Z,13.50
2023-05-20T23:57:26.194Z,13.64
